Time;durP1;ratioP1;P1;durP2;ratioP2;P2;SDS_P1;SDS_P2;PMS_P1;PMS_P2;Temp;Humidity;BMP_temperature;BMP_pressure;BME280_temperature;BME280_humidity;BME280_pressure;Samples;Min_cycle;Max_cycle;Signal;HPM_P1;HPM_P2
2022/12/24 00:01:13;;;;;;;8.00;4.65;;;6.80;99.90;;;;;;5053600;28;20112;-70
2022/12/24 00:03:38;;;;;;;10.27;4.47;;;6.90;99.90;;;;;;5035895;28;20048;-69
2022/12/24 00:06:12;;;;;;;9.75;4.43;;;6.90;99.90;;;;;;5035335;28;20053;-70
2022/12/24 00:08:37;;;;;;;7.82;3.80;;;6.90;99.90;;;;;;5035399;28;20041;-70
2022/12/24 00:11:03;;;;;;;7.90;3.67;;;6.90;99.90;;;;;;5035368;28;20068;-69
2022/12/24 00:13:28;;;;;;;11.70;5.03;;;6.90;99.90;;;;;;5053108;28;20055;-70
2022/12/24 00:15:54;;;;;;;10.13;5.05;;;6.90;99.90;;;;;;5053373;28;20129;-70
2022/12/24 00:18:20;;;;;;;7.82;3.67;;;6.90;99.90;;;;;;5053425;28;20037;-70
2022/12/24 00:20:49;;;;;;;6.30;3.70;;;6.90;99.90;;;;;;5035249;28;20036;-70
2022/12/24 00:23:16;;;;;;;8.40;4.05;;;7.20;99.90;;;;;;5053227;28;20049;-70
2022/12/24 00:25:42;;;;;;;9.98;4.60;;;6.90;99.90;;;;;;5035160;28;20072;-70
2022/12/24 00:28:07;;;;;;;7.30;4.03;;;6.80;99.90;;;;;;5035174;28;20561;-70
2022/12/24 00:30:33;;;;;;;7.78;3.80;;;6.90;99.90;;;;;;5053136;28;20037;-70
2022/12/24 00:32:58;;;;;;;8.15;4.60;;;6.90;99.90;;;;;;5053140;28;20045;-70
2022/12/24 00:35:24;;;;;;;7.78;4.40;;;6.90;99.90;;;;;;5052838;28;20040;-69
2022/12/24 00:37:50;;;;;;;10.88;4.38;;;6.90;99.90;;;;;;5035302;28;20043;-70
2022/12/24 00:40:16;;;;;;;7.05;3.55;;;6.80;99.90;;;;;;5053096;28;20044;-69
2022/12/24 00:42:43;;;;;;;6.97;4.07;;;6.90;99.90;;;;;;5052878;28;20053;-70
2022/12/24 00:45:09;;;;;;;6.93;3.97;;;6.90;99.90;;;;;;5053041;28;20408;-70
2022/12/24 00:47:35;;;;;;;11.45;5.00;;;6.90;99.90;;;;;;5053048;28;20099;-69
2022/12/24 00:50:01;;;;;;;7.45;4.35;;;6.90;99.90;;;;;;5034958;28;20033;-70
2022/12/24 00:52:27;;;;;;;10.07;4.93;;;6.90;99.90;;;;;;5052925;28;20037;-70
2022/12/24 00:54:52;;;;;;;8.68;4.75;;;6.90;99.90;;;;;;5035091;28;20045;-70
2022/12/24 00:57:18;;;;;;;7.72;4.43;;;6.70;99.90;;;;;;5034845;28;20404;-70
2022/12/24 00:59:44;;;;;;;7.75;3.92;;;6.90;99.90;;;;;;5053421;28;20048;-69
2022/12/24 01:02:09;;;;;;;8.20;4.00;;;6.90;99.90;;;;;;5038952;28;20044;-69
2022/12/24 01:07:19;;;;;;;7.68;4.50;;;6.90;99.90;;;;;;5056591;28;20053;-69
2022/12/24 01:09:45;;;;;;;12.13;5.15;;;6.90;99.90;;;;;;5056852;28;20033;-69
2022/12/24 01:12:10;;;;;;;7.20;4.25;;;6.90;99.90;;;;;;5056820;28;20131;-69
2022/12/24 01:14:37;;;;;;;10.32;4.55;;;6.90;99.90;;;;;;5056479;28;20037;-69
2022/12/24 01:17:03;;;;;;;9.70;4.28;;;6.90;99.90;;;;;;5056725;28;20127;-69
2022/12/24 01:19:29;;;;;;;7.55;4.10;;;6.90;99.90;;;;;;5057050;28;20083;-69
2022/12/24 01:21:54;;;;;;;15.85;5.38;;;6.90;99.90;;;;;;5056588;28;20045;-69
2022/12/24 01:24:20;;;;;;;7.28;4.22;;;6.90;99.90;;;;;;5038800;28;20051;-69
2022/12/24 01:26:45;;;;;;;11.73;5.68;;;6.90;99.90;;;;;;5038423;28;20039;-69
2022/12/24 01:29:11;;;;;;;12.98;5.35;;;6.90;99.90;;;;;;5038438;28;20048;-71
2022/12/24 01:31:36;;;;;;;10.55;4.57;;;6.90;99.90;;;;;;5056466;28;20499;-69
2022/12/24 01:34:02;;;;;;;8.32;4.57;;;6.90;99.90;;;;;;5038259;28;20053;-69
2022/12/24 01:36:28;;;;;;;11.63;4.82;;;6.90;99.90;;;;;;5038319;28;20489;-69
2022/12/24 01:38:53;;;;;;;9.70;5.55;;;6.90;99.90;;;;;;5056080;28;20040;-69
2022/12/24 01:44:25;;;;;;;9.90;4.85;;;6.90;99.90;;;;;;5056227;28;20427;-69
2022/12/24 01:47:15;;;;;;;8.55;4.68;;;6.90;99.90;;;;;;5055862;28;20043;-69
2022/12/24 01:49:52;;;;;;;11.88;5.72;;;6.90;99.90;;;;;;5025283;28;20453;-69
2022/12/24 01:52:25;;;;;;;15.63;6.25;;;7.00;99.90;;;;;;5037914;28;20084;-71
2022/12/24 01:54:55;;;;;;;12.88;5.43;;;6.90;99.90;;;;;;5055798;28;20048;-69
2022/12/24 01:57:28;;;;;;;9.63;5.20;;;6.90;99.90;;;;;;5037836;28;20041;-69
2022/12/24 01:59:57;;;;;;;8.60;5.00;;;6.90;99.90;;;;;;5038176;28;20051;-70
2022/12/24 02:02:24;;;;;;;12.65;5.57;;;6.90;99.90;;;;;;5037772;28;20041;-68
2022/12/24 02:05:13;;;;;;;8.65;4.93;;;6.90;99.90;;;;;;5037595;28;20055;-69
2022/12/24 02:07:39;;;;;;;12.65;6.00;;;6.90;99.90;;;;;;5037666;28;20049;-69
2022/12/24 02:10:09;;;;;;;12.52;5.93;;;6.90;99.90;;;;;;5037589;28;20136;-68
2022/12/24 02:12:36;;;;;;;11.38;5.00;;;6.90;99.90;;;;;;5036871;28;20040;-69
2022/12/24 02:15:03;;;;;;;11.23;5.03;;;6.90;99.90;;;;;;5055642;28;20041;-69
2022/12/24 02:17:40;;;;;;;10.30;5.22;;;6.90;99.90;;;;;;5055554;28;20045;-69
2022/12/24 02:20:36;;;;;;;11.25;5.47;;;7.00;99.90;;;;;;5055313;28;20045;-69
2022/12/24 02:23:13;;;;;;;11.77;5.55;;;6.90;99.90;;;;;;5055445;28;20044;-69
2022/12/24 02:25:56;;;;;;;15.40;5.47;;;6.80;99.90;;;;;;5037490;28;20045;-69
2022/12/24 02:29:04;;;;;;;11.70;5.20;;;6.90;99.90;;;;;;5037426;28;20094;-69
2022/12/24 02:31:49;;;;;;;10.30;5.43;;;6.90;99.90;;;;;;5055078;28;20447;-69
2022/12/24 02:34:30;;;;;;;10.43;5.53;;;7.00;99.90;;;;;;5055330;28;20112;-69
2022/12/24 02:37:16;;;;;;;11.77;5.25;;;7.00;99.90;;;;;;5037164;28;20036;-70
2022/12/24 02:39:48;;;;;;;10.95;5.28;;;7.10;99.90;;;;;;5037122;28;20048;-70
2022/12/24 02:42:21;;;;;;;10.13;5.40;;;7.20;99.90;;;;;;5055103;28;20464;-69
2022/12/24 02:44:57;;;;;;;12.20;5.20;;;7.20;99.90;;;;;;5037069;28;20044;-69
2022/12/24 02:47:26;;;;;;;10.05;5.80;;;7.30;99.90;;;;;;5055147;28;20591;-69
2022/12/24 02:49:51;;;;;;;8.60;5.35;;;7.30;99.90;;;;;;5055033;28;20041;-69
2022/12/24 02:52:35;;;;;;;11.93;5.90;;;7.30;99.90;;;;;;5036961;28;20506;-69
2022/12/24 02:55:22;;;;;;;9.38;5.10;;;7.40;99.90;;;;;;5037103;28;20045;-69
2022/12/24 02:57:56;;;;;;;9.80;4.30;;;7.50;99.90;;;;;;5036772;28;20041;-70
2022/12/24 03:00:23;;;;;;;16.38;5.18;;;7.60;99.90;;;;;;5055165;28;20539;-62
2022/12/24 03:03:07;;;;;;;7.68;4.60;;;7.70;99.90;;;;;;5054734;28;20033;-62
2022/12/24 03:05:46;;;;;;;6.63;4.15;;;7.90;99.90;;;;;;5062027;22;20052;-68
2022/12/24 03:08:34;;;;;;;8.73;4.55;;;8.00;99.90;;;;;;5036822;28;20048;-68
2022/12/24 03:11:19;;;;;;;8.60;4.65;;;8.00;99.90;;;;;;5036530;28;20045;-68
2022/12/24 03:13:46;;;;;;;7.00;3.60;;;8.10;99.90;;;;;;5036534;28;20036;-68
2022/12/24 03:16:20;;;;;;;6.50;3.78;;;8.10;99.90;;;;;;5019988;28;20045;-67
2022/12/24 03:18:47;;;;;;;6.75;3.42;;;8.10;99.90;;;;;;5036711;28;20037;-68
2022/12/24 03:21:31;;;;;;;8.98;3.50;;;8.30;99.90;;;;;;5036309;28;20037;-67
2022/12/24 03:23:57;;;;;;;6.88;3.05;;;8.20;99.90;;;;;;5036171;28;20094;-68
2022/12/24 03:26:25;;;;;;;5.38;2.90;;;8.10;99.90;;;;;;5036568;28;20036;-68
2022/12/24 03:28:51;;;;;;;12.82;2.85;;;8.30;99.90;;;;;;5036172;28;20498;-68
2022/12/24 03:31:17;;;;;;;6.03;2.47;;;8.20;99.90;;;;;;5036235;28;20078;-68
2022/12/24 03:33:43;;;;;;;8.43;2.20;;;8.30;99.90;;;;;;5036124;28;20086;-68
2022/12/24 03:36:10;;;;;;;5.82;2.03;;;8.40;99.90;;;;;;5054205;28;20044;-68
2022/12/24 03:38:36;;;;;;;9.43;2.42;;;8.40;99.90;;;;;;5036040;28;20040;-68
2022/12/24 03:41:02;;;;;;;5.38;1.98;;;8.50;99.90;;;;;;5035957;28;20044;-68
2022/12/24 03:43:28;;;;;;;2.83;1.98;;;8.70;99.90;;;;;;5035803;28;20044;-68
2022/12/24 03:45:54;;;;;;;14.23;2.00;;;8.80;99.90;;;;;;5019707;28;20124;-67
2022/12/24 03:48:19;;;;;;;6.95;2.15;;;8.60;99.90;;;;;;5019786;28;20041;-67
2022/12/24 03:50:45;;;;;;;4.93;1.80;;;8.40;99.90;;;;;;5035797;28;20037;-68
2022/12/24 03:53:10;;;;;;;10.40;2.30;;;9.00;99.90;;;;;;5036103;28;20112;-68
2022/12/24 03:55:37;;;;;;;12.75;1.83;;;8.60;99.90;;;;;;5035817;28;20045;-68
2022/12/24 03:58:03;;;;;;;6.95;1.92;;;8.60;99.90;;;;;;5019377;28;20056;-68
2022/12/24 04:00:28;;;;;;;4.95;1.77;;;8.50;99.90;;;;;;5053750;28;20045;-68
2022/12/24 04:02:54;;;;;;;7.88;1.60;;;8.60;99.90;;;;;;5035498;28;20502;-68
2022/12/24 04:05:20;;;;;;;7.57;1.40;;;8.60;99.90;;;;;;5032220;28;20072;-67
2022/12/24 04:07:46;;;;;;;4.63;1.42;;;8.60;99.90;;;;;;5032242;28;20471;-68
2022/12/24 04:10:13;;;;;;;3.65;1.30;;;8.60;99.90;;;;;;5032173;28;20045;-68
2022/12/24 04:12:39;;;;;;;5.00;1.67;;;8.60;99.90;;;;;;5032120;28;20102;-68
2022/12/24 04:15:06;;;;;;;7.18;1.75;;;8.40;99.90;;;;;;5032110;28;20037;-68
2022/12/24 04:17:32;;;;;;;11.02;1.50;;;8.60;99.90;;;;;;5015841;28;20037;-68
2022/12/24 04:19:57;;;;;;;8.23;1.65;;;8.60;99.90;;;;;;5031946;28;20038;-68
2022/12/24 04:22:23;;;;;;;17.95;2.13;;;8.70;99.90;;;;;;5031847;28;20071;-68
2022/12/24 04:24:48;;;;;;;12.20;2.45;;;8.60;99.90;;;;;;5033144;28;20042;-67
2022/12/24 04:27:15;;;;;;;3.33;1.17;;;8.70;99.90;;;;;;5033418;28;20037;-67
2022/12/24 04:29:40;;;;;;;6.40;1.60;;;8.60;99.90;;;;;;5031902;28;20142;-68
2022/12/24 04:32:06;;;;;;;10.25;1.58;;;8.50;99.90;;;;;;5032166;28;20076;-68
2022/12/24 04:34:32;;;;;;;5.47;1.70;;;8.60;99.90;;;;;;5031597;28;20136;-68
2022/12/24 04:36:57;;;;;;;6.30;1.63;;;8.50;99.90;;;;;;5031678;28;20052;-67
2022/12/24 04:39:23;;;;;;;11.63;1.98;;;8.40;99.90;;;;;;5033267;28;20045;-68
2022/12/24 04:41:49;;;;;;;10.32;2.35;;;8.50;99.90;;;;;;5031645;28;20489;-67
2022/12/24 04:44:14;;;;;;;11.77;2.03;;;8.50;99.90;;;;;;5015307;28;20409;-68
2022/12/24 04:46:41;;;;;;;4.95;1.67;;;8.40;99.90;;;;;;5033221;28;20041;-68
2022/12/24 04:49:07;;;;;;;7.63;1.52;;;8.50;99.90;;;;;;5032909;28;20443;-68
2022/12/24 04:51:33;;;;;;;6.00;1.52;;;8.50;99.90;;;;;;5033146;28;20072;-67
2022/12/24 04:53:59;;;;;;;5.35;1.63;;;8.60;99.90;;;;;;5031608;28;20107;-68
2022/12/24 04:56:27;;;;;;;6.80;1.38;;;8.60;99.90;;;;;;5031912;28;20112;-68
2022/12/24 04:58:53;;;;;;;5.35;1.75;;;8.90;99.90;;;;;;5033126;28;20515;-68
2022/12/24 05:01:24;;;;;;;6.15;1.98;;;9.20;99.90;;;;;;5031743;28;20048;-68
2022/12/24 05:03:51;;;;;;;9.88;1.55;;;8.70;99.90;;;;;;5033020;28;20033;-68
2022/12/24 05:06:21;;;;;;;12.13;1.88;;;8.50;99.90;;;;;;5052940;28;20555;-68
2022/12/24 05:08:48;;;;;;;10.00;1.20;;;8.70;99.90;;;;;;5052919;28;20037;-68
2022/12/24 05:11:15;;;;;;;6.22;1.20;;;8.70;99.90;;;;;;5034701;28;20311;-68
2022/12/24 05:13:41;;;;;;;4.40;1.13;;;8.60;99.90;;;;;;5034714;28;20034;-68
2022/12/24 05:16:08;;;;;;;5.63;1.67;;;8.70;99.90;;;;;;5034668;28;20190;-68
2022/12/24 05:18:33;;;;;;;11.35;1.63;;;8.60;99.90;;;;;;5018307;28;20052;-68
2022/12/24 05:20:59;;;;;;;6.47;1.05;;;9.20;99.90;;;;;;5034681;28;20480;-68
2022/12/24 05:26:20;;;;;;;4.38;1.60;;;8.50;99.90;;;;;;5052698;28;20500;-68
2022/12/24 05:28:50;;;;;;;9.15;1.98;;;8.60;99.90;;;;;;5034520;28;20041;-68
2022/12/24 05:31:16;;;;;;;6.60;1.38;;;8.60;99.90;;;;;;5052653;28;20033;-68
2022/12/24 05:33:41;;;;;;;10.75;1.35;;;8.40;99.90;;;;;;5035060;28;20472;-68
2022/12/24 05:36:08;;;;;;;8.25;2.28;;;8.50;99.90;;;;;;5052322;28;20076;-68
2022/12/24 05:38:34;;;;;;;12.82;2.22;;;8.50;99.90;;;;;;5034724;28;20132;-68
2022/12/24 05:40:59;;;;;;;16.30;2.63;;;8.50;99.90;;;;;;5034641;28;20076;-67
2022/12/24 05:43:25;;;;;;;9.68;1.75;;;8.70;99.90;;;;;;5017994;28;20037;-68
2022/12/24 05:45:51;;;;;;;10.93;1.95;;;8.40;99.90;;;;;;5034399;28;20116;-69
2022/12/24 05:48:16;;;;;;;16.88;2.15;;;8.40;99.90;;;;;;5037558;28;20033;-68
2022/12/24 05:50:42;;;;;;;9.10;1.63;;;8.50;99.90;;;;;;5021616;28;20498;-68
2022/12/24 05:53:08;;;;;;;14.35;2.75;;;8.40;99.90;;;;;;5056191;28;20120;-68
2022/12/24 05:55:34;;;;;;;14.95;1.85;;;8.50;99.90;;;;;;5038236;28;20041;-68
2022/12/24 05:57:59;;;;;;;11.65;1.63;;;8.80;99.90;;;;;;5037900;28;20074;-68
2022/12/24 06:00:25;;;;;;;6.38;1.88;;;8.30;99.90;;;;;;5037795;28;20041;-68
2022/12/24 06:02:51;;;;;;;6.07;1.58;;;8.40;99.90;;;;;;5037758;28;20037;-68
2022/12/24 06:05:16;;;;;;;12.98;1.90;;;9.30;99.90;;;;;;5037836;28;20049;-67
2022/12/24 06:07:42;;;;;;;11.65;1.73;;;8.30;99.90;;;;;;5037759;28;20048;-68
2022/12/24 06:10:08;;;;;;;9.70;1.75;;;8.40;99.90;;;;;;5037717;28;20045;-68
2022/12/24 06:12:34;;;;;;;8.85;1.80;;;8.40;99.90;;;;;;5037581;28;20048;-69
2022/12/24 06:15:00;;;;;;;7.60;1.45;;;8.30;99.90;;;;;;5055673;28;20523;-66
2022/12/24 06:17:25;;;;;;;6.10;2.00;;;8.50;99.90;;;;;;5055755;28;20072;-68
2022/12/24 06:19:51;;;;;;;7.85;1.95;;;8.40;99.90;;;;;;5021113;28;20044;-69
2022/12/24 06:22:17;;;;;;;11.77;2.65;;;8.30;99.90;;;;;;5037607;28;20052;-68
2022/12/24 06:24:42;;;;;;;18.52;2.47;;;8.40;99.90;;;;;;5037624;28;20039;-76
2022/12/24 06:27:08;;;;;;;9.80;2.13;;;8.30;99.90;;;;;;5037700;28;20099;-68
2022/12/24 06:29:33;;;;;;;8.82;2.00;;;8.40;99.90;;;;;;5055200;28;20037;-68
2022/12/24 06:31:59;;;;;;;10.50;1.50;;;8.30;99.90;;;;;;5037261;28;20045;-68
2022/12/24 06:34:25;;;;;;;4.78;1.42;;;8.40;99.90;;;;;;5055181;28;20048;-68
2022/12/24 06:36:50;;;;;;;15.75;2.28;;;8.40;99.90;;;;;;5055293;28;20171;-67
2022/12/24 06:39:16;;;;;;;14.93;1.77;;;8.50;99.90;;;;;;5020998;28;20045;-70
2022/12/24 06:41:41;;;;;;;7.78;1.55;;;8.40;99.90;;;;;;5020584;28;20088;-67
2022/12/24 06:44:07;;;;;;;7.07;1.75;;;8.40;99.90;;;;;;5054946;28;20561;-68
2022/12/24 06:46:33;;;;;;;10.90;2.05;;;8.30;99.90;;;;;;5036919;28;20049;-67
2022/12/24 06:48:59;;;;;;;14.18;2.38;;;8.40;99.90;;;;;;5037199;28;20032;-67
2022/12/24 06:51:25;;;;;;;10.65;1.95;;;8.40;99.90;;;;;;5036937;28;20105;-67
2022/12/24 06:53:51;;;;;;;11.75;2.55;;;8.40;99.90;;;;;;5036860;28;20476;-67
2022/12/24 06:56:17;;;;;;;14.13;2.20;;;8.40;99.90;;;;;;5054779;28;20041;-66
2022/12/24 06:58:43;;;;;;;10.98;1.95;;;8.50;99.90;;;;;;5036334;28;20045;-68
2022/12/24 07:01:12;;;;;;;11.00;1.98;;;8.30;99.90;;;;;;5036755;28;20044;-67
2022/12/24 07:03:38;;;;;;;13.77;2.63;;;8.20;99.90;;;;;;5036656;28;20049;-67
2022/12/24 07:06:04;;;;;;;11.23;2.47;;;8.30;99.90;;;;;;5036969;28;20411;-68
2022/12/24 07:08:32;;;;;;;20.60;2.78;;;8.20;99.90;;;;;;5020140;28;20049;-68
2022/12/24 07:10:59;;;;;;;21.38;2.78;;;8.20;99.90;;;;;;5054730;28;20111;-67
2022/12/24 07:13:25;;;;;;;6.88;1.67;;;8.30;99.90;;;;;;5054394;28;20067;-67
2022/12/24 07:16:00;;;;;;;8.73;2.28;;;8.20;99.90;;;;;;5036812;28;20032;-68
2022/12/24 07:18:26;;;;;;;13.68;1.98;;;8.20;99.90;;;;;;5054582;28;20083;-68
2022/12/24 07:20:52;;;;;;;17.60;2.03;;;8.40;99.90;;;;;;5036648;28;20450;-70
2022/12/24 07:23:18;;;;;;;9.68;1.83;;;8.90;99.90;;;;;;5036284;28;20048;-68
2022/12/24 07:25:43;;;;;;;10.07;1.92;;;8.40;99.90;;;;;;5036533;28;20036;-77
2022/12/24 07:28:09;;;;;;;8.70;2.28;;;9.40;99.90;;;;;;5036286;28;20079;-67
2022/12/24 07:30:35;;;;;;;17.42;3.05;;;8.40;99.90;;;;;;5036559;28;20037;-66
2022/12/24 07:33:00;;;;;;;14.18;1.73;;;8.50;99.90;;;;;;5036242;28;20045;-66
2022/12/24 07:35:26;;;;;;;13.63;3.03;;;8.50;99.90;;;;;;5036130;28;20502;-69
2022/12/24 07:37:51;;;;;;;11.95;2.25;;;8.50;99.90;;;;;;5036309;28;20041;-67
2022/12/24 07:40:17;;;;;;;12.35;2.13;;;8.60;99.90;;;;;;5035907;28;20057;-66
2022/12/24 07:42:42;;;;;;;8.18;2.10;;;8.60;99.90;;;;;;5035928;28;20044;-66
2022/12/24 07:45:09;;;;;;;12.43;1.83;;;8.60;99.90;;;;;;5054044;28;20045;-68
2022/12/24 07:47:35;;;;;;;6.30;1.63;;;8.60;99.90;;;;;;5035909;28;20072;-67
2022/12/24 07:50:01;;;;;;;7.97;1.85;;;8.70;99.90;;;;;;5035838;28;20045;-67
2022/12/24 07:52:26;;;;;;;14.73;1.88;;;8.60;99.90;;;;;;5019351;28;20049;-67
2022/12/24 07:54:52;;;;;;;8.70;1.92;;;;;;;;;;5035975;28;20476;-66
2022/12/24 07:57:18;;;;;;;16.13;2.53;;;8.70;99.90;;;;;;5035634;28;20049;-66
2022/12/24 07:59:43;;;;;;;10.20;2.00;;;8.80;99.90;;;;;;5053386;28;20404;-67
2022/12/24 08:02:10;;;;;;;9.68;1.95;;;8.80;99.90;;;;;;5035714;28;20037;-67
2022/12/24 08:04:36;;;;;;;7.88;2.03;;;9.00;99.90;;;;;;5053186;28;20059;-71
2022/12/24 08:07:06;;;;;;;5.63;1.92;;;9.30;99.90;;;;;;5035441;28;20115;-68
2022/12/24 08:09:36;;;;;;;4.27;1.83;;;8.60;99.90;;;;;;5018488;28;20128;-66
2022/12/24 08:12:03;;;;;;;13.95;2.33;;;8.70;99.90;;;;;;5053366;28;20037;-67
2022/12/24 08:14:29;;;;;;;18.08;1.88;;;8.70;99.90;;;;;;5053261;28;20169;-66
2022/12/24 08:16:55;;;;;;;9.10;2.22;;;8.70;99.90;;;;;;5053163;28;20503;-76
2022/12/24 08:19:20;;;;;;;9.82;2.10;;;9.10;99.90;;;;;;5035301;28;20033;-69
2022/12/24 08:21:46;;;;;;;15.82;2.15;;;8.70;99.90;;;;;;5053204;28;20493;-69
2022/12/24 08:24:12;;;;;;;6.53;1.90;;;8.70;99.90;;;;;;5035504;28;20044;-68
2022/12/24 08:26:37;;;;;;;11.77;2.15;;;8.70;99.90;;;;;;5053308;28;20046;-69
2022/12/24 08:29:04;;;;;;;13.57;2.28;;;9.50;99.90;;;;;;5018688;28;20037;-67
2022/12/24 08:31:35;;;;;;;8.40;1.83;;;8.70;99.90;;;;;;5018678;28;20041;-66
2022/12/24 08:34:02;;;;;;;9.15;1.75;;;8.70;99.90;;;;;;5035010;28;20044;-67
2022/12/24 08:36:27;;;;;;;10.73;3.13;;;8.80;99.90;;;;;;5035262;28;20048;-68
2022/12/24 08:38:53;;;;;;;5.65;1.52;;;9.00;99.90;;;;;;5035223;28;20047;-66
2022/12/24 08:41:18;;;;;;;17.17;2.15;;;8.80;99.90;;;;;;5053104;28;20037;-67
2022/12/24 08:43:44;;;;;;;9.68;1.92;;;8.80;99.90;;;;;;5034993;28;20496;-67
2022/12/24 08:46:09;;;;;;;9.85;2.63;;;8.90;99.90;;;;;;5052800;28;20041;-67
2022/12/24 08:48:35;;;;;;;16.52;2.55;;;8.90;99.90;;;;;;5034944;28;20040;-66
2022/12/24 08:51:09;;;;;;;9.07;1.88;;;8.90;99.90;;;;;;5035103;28;20475;-67
2022/12/24 08:53:34;;;;;;;10.05;1.48;;;8.90;99.90;;;;;;5052741;28;20040;-66
2022/12/24 08:56:02;;;;;;;10.57;2.20;;;8.90;99.90;;;;;;5018519;28;20041;-67
2022/12/24 08:58:29;;;;;;;13.95;1.90;;;8.90;99.90;;;;;;5035145;28;20041;-67
2022/12/24 09:00:54;;;;;;;13.77;2.28;;;8.90;99.90;;;;;;5052965;28;20044;-73
2022/12/24 09:03:20;;;;;;;10.65;1.75;;;9.80;99.90;;;;;;5018306;28;20447;-70
2022/12/24 09:05:46;;;;;;;9.55;2.95;;;9.00;99.90;;;;;;5034687;28;20412;-68
2022/12/24 09:08:12;;;;;;;7.07;1.63;;;9.00;99.90;;;;;;5034777;28;20044;-68
2022/12/24 09:10:38;;;;;;;12.35;2.00;;;9.00;99.90;;;;;;5034875;28;20045;-66
2022/12/24 09:13:03;;;;;;;3.65;1.50;;;9.00;99.90;;;;;;5034680;28;20090;-66
2022/12/24 09:15:29;;;;;;;16.00;2.67;;;9.00;99.90;;;;;;5034640;28;20492;-66
2022/12/24 09:17:54;;;;;;;7.18;1.92;;;9.00;99.90;;;;;;5052839;28;20048;-68
2022/12/24 09:20:20;;;;;;;16.42;2.30;;;9.10;99.90;;;;;;5018467;28;20553;-69
2022/12/24 09:22:46;;;;;;;7.63;2.50;;;;;;;;;;5038564;28;20399;-66
2022/12/24 09:25:12;;;;;;;10.82;2.67;;;9.10;99.90;;;;;;5039090;28;20036;-66
2022/12/24 09:27:37;;;;;;;8.38;1.95;;;9.20;99.90;;;;;;5038493;28;20049;-75
2022/12/24 09:30:05;;;;;;;10.82;2.22;;;9.60;99.90;;;;;;5038531;28;20037;-66
2022/12/24 09:32:30;;;;;;;20.38;2.90;;;9.20;99.90;;;;;;5038334;28;20416;-69
2022/12/24 09:34:56;;;;;;;16.92;2.83;;;9.20;99.90;;;;;;5038647;28;20044;-70
2022/12/24 09:37:22;;;;;;;10.35;2.00;;;9.30;99.90;;;;;;5038589;28;20052;-66
2022/12/24 09:39:47;;;;;;;7.45;2.03;;;9.30;99.90;;;;;;5038271;28;20045;-65
2022/12/24 09:42:40;;;;;;;10.10;2.60;;;9.30;99.90;;;;;;5056019;28;20037;-65
2022/12/24 09:45:18;;;;;;;11.52;1.98;;;9.30;99.90;;;;;;5056410;28;20442;-72
2022/12/24 09:47:51;;;;;;;8.15;2.53;;;9.30;99.90;;;;;;5056331;28;20490;-66
2022/12/24 09:50:38;;;;;;;8.02;2.30;;;9.30;99.90;;;;;;5056225;28;20442;-65
2022/12/24 09:53:11;;;;;;;5.35;1.83;;;9.30;99.90;;;;;;5021722;28;20052;-70
2022/12/24 09:55:44;;;;;;;9.55;2.70;;;9.30;99.90;;;;;;5021591;28;20446;-66
2022/12/24 09:58:28;;;;;;;6.57;2.50;;;9.40;99.90;;;;;;5038004;28;20377;-65
2022/12/24 10:00:55;;;;;;;9.68;2.35;;;9.40;99.90;;;;;;5056046;28;20037;-65
2022/12/24 10:03:21;;;;;;;6.82;2.50;;;9.40;99.90;;;;;;5055925;28;20037;-66
2022/12/24 10:05:54;;;;;;;13.20;2.95;;;9.40;99.90;;;;;;5055619;28;20064;-66
2022/12/24 10:08:42;;;;;;;9.63;2.20;;;9.40;99.90;;;;;;5055889;28;20041;-66
2022/12/24 10:11:20;;;;;;;9.20;2.13;;;9.40;99.90;;;;;;5037730;28;20048;-65
2022/12/24 10:14:06;;;;;;;8.20;2.03;;;9.40;99.90;;;;;;5055724;28;20422;-66
2022/12/24 10:16:37;;;;;;;6.72;2.25;;;9.40;99.90;;;;;;5055742;28;20033;-65
2022/12/24 10:19:03;;;;;;;;;;;9.30;99.90;;;;;;5038217;28;20045;-66
2022/12/24 10:21:56;;;;;;;12.00;1.63;;;9.30;99.90;;;;;;5055862;28;19916;-69
2022/12/24 10:24:49;;;;;;;10.57;1.52;;;9.30;99.90;;;;;;5020147;28;20049;-66
2022/12/24 10:27:19;;;;;;;8.07;1.45;;;9.30;99.90;;;;;;5026775;28;20123;-66
2022/12/24 10:29:51;;;;;;;12.70;1.38;;;9.30;99.90;;;;;;5037297;28;20041;-65
2022/12/24 10:32:26;;;;;;;3.42;1.60;;;9.20;99.90;;;;;;5054696;28;20090;-66
2022/12/24 10:35:05;;;;;;;13.95;1.65;;;9.20;99.90;;;;;;5037574;28;20083;-65
2022/12/24 10:37:31;;;;;;;8.25;1.50;;;9.20;99.90;;;;;;5037497;28;20488;-67
2022/12/24 10:39:59;;;;;;;11.93;1.63;;;9.20;99.90;;;;;;5055307;28;20066;-67
2022/12/24 10:42:37;;;;;;;6.38;1.70;;;9.20;99.90;;;;;;5054959;28;20033;-65
2022/12/24 10:45:06;;;;;;;7.07;1.63;;;9.30;99.90;;;;;;5055187;28;20120;-65
2022/12/24 10:47:38;;;;;;;10.07;1.33;;;9.30;99.90;;;;;;5055236;28;20029;-65
2022/12/24 10:50:14;;;;;;;7.43;1.48;;;9.40;99.90;;;;;;5055174;28;20051;-65
2022/12/24 10:52:42;;;;;;;7.88;2.05;;;9.40;99.90;;;;;;5053566;28;20053;-66
2022/12/24 10:55:16;;;;;;;6.50;1.63;;;9.40;99.90;;;;;;5055088;28;20060;-69
2022/12/24 10:57:43;;;;;;;6.28;1.10;;;9.40;99.90;;;;;;5036862;28;20132;-66
2022/12/24 11:00:21;;;;;;;4.47;1.52;;;9.70;99.90;;;;;;5037107;28;20041;-66
2022/12/24 11:02:48;;;;;;;7.80;1.52;;;9.50;99.90;;;;;;5054523;28;20071;-65
2022/12/24 11:05:32;;;;;;;11.73;1.80;;;9.50;99.90;;;;;;5054623;28;20063;-71
2022/12/24 11:08:03;;;;;;;9.07;1.85;;;9.80;99.90;;;;;;5036531;28;20408;-70
2022/12/24 11:10:30;;;;;;;6.22;1.30;;;9.70;99.90;;;;;;5054733;28;20036;-65
2022/12/24 11:12:55;;;;;;;7.13;1.50;;;9.60;99.90;;;;;;5036581;28;20044;-64
2022/12/24 11:15:26;;;;;;;8.52;1.70;;;9.70;99.90;;;;;;5036701;28;20123;-67
2022/12/24 11:18:12;;;;;;;8.15;1.88;;;10.10;99.90;;;;;;5054612;28;20079;-66
2022/12/24 11:20:38;;;;;;;6.85;1.52;;;9.70;99.90;;;;;;5054523;28;20045;-69
2022/12/24 11:23:04;;;;;;;9.55;1.50;;;9.80;99.90;;;;;;5054399;28;20064;-69
2022/12/24 11:25:31;;;;;;;8.95;2.50;;;;;;;;;;5019958;28;20045;-65
2022/12/24 11:28:31;;;;;;;4.97;1.65;;;;;;;;;;5036570;28;20053;-65
2022/12/24 11:31:18;;;;;;;6.70;1.75;;;;;;;;;;5011179;28;20057;-65
2022/12/24 11:33:49;;;;;;;5.55;1.40;;;;;;;;;;5036410;28;20045;-65
2022/12/24 11:36:16;;;;;;;6.65;1.23;;;;;;;;;;5054332;28;20124;-65
2022/12/24 11:38:42;;;;;;;7.97;1.83;;;;;;;;;;5053914;28;20087;-66
2022/12/24 11:41:10;;;;;;;7.43;1.60;;;;;;;;;;5054162;28;20040;-66
2022/12/24 11:43:49;;;;;;;6.55;1.55;;;;;;;;;;5054093;28;20048;-66
2022/12/24 11:46:20;;;;;;;8.35;1.98;;;;;;;;;;5035890;28;20032;-66
2022/12/24 11:48:46;;;;;;;11.77;1.98;;;;;;;;;;5053740;28;20041;-65
2022/12/24 11:51:23;;;;;;;8.20;1.77;;;;;;;;;;5053953;28;20499;-65
2022/12/24 11:53:58;;;;;;;5.20;1.20;;;;;;;;;;5053970;28;20045;-72
2022/12/24 11:56:24;;;;;;;11.75;2.35;;;;;;;;;;5019627;28;20036;-69
2022/12/24 11:58:53;;;;;;;3.95;1.40;;;;;;;;;;5035683;28;20055;-65
2022/12/24 12:01:34;;;;;;;5.40;1.58;;;;;;;;;;5053542;28;20135;-65
2022/12/24 12:04:01;;;;;;;7.85;1.88;;;;;;;;;;5053518;28;20040;-65
2022/12/24 12:06:46;;;;;;;4.97;1.15;;;;;;;;;;5053698;28;20049;-72
2022/12/24 12:09:14;;;;;;;10.93;2.13;;;;;;;;;;5035458;28;20403;-65
2022/12/24 12:11:42;;;;;;;12.63;1.50;;;;;;;;;;5053600;28;20094;-65
2022/12/24 12:14:14;;;;;;;17.88;2.40;;;;;;;;;;5035433;28;20435;-65
2022/12/24 12:17:04;;;;;;;9.77;1.35;;;;;;;;;;5053543;28;20385;-65
2022/12/24 12:19:57;;;;;;;8.15;1.77;;;;;;;;;;5035720;28;20037;-65
2022/12/24 12:22:28;;;;;;;9.65;1.83;;;;;;;;;;5031806;28;20045;-65
2022/12/24 12:24:55;;;;;;;6.28;1.52;;;;;;;;;;5053414;28;20430;-67
2022/12/24 12:27:31;;;;;;;12.73;1.92;;;;;;;;;;5035193;28;20041;-65
2022/12/24 12:30:01;;;;;;;5.70;1.23;;;;;;;;;;5053283;28;20037;-72
2022/12/24 12:32:50;;;;;;;9.93;2.13;;;;;;;;;;5035160;28;20044;-66
2022/12/24 12:35:23;;;;;;;8.93;2.00;;;;;;;;;;5051813;28;20053;-65
2022/12/24 12:37:55;;;;;;;9.65;1.63;;;;;;;;;;5035307;28;20040;-66
2022/12/24 12:40:25;;;;;;;9.65;1.52;;;;;;;;;;5053073;28;20041;-65
2022/12/24 12:43:01;;;;;;;10.82;2.03;;;;;;;;;;5035254;28;20048;-64
2022/12/24 12:45:33;;;;;;;11.43;1.92;;;;;;;;;;5053149;28;20041;-64
2022/12/24 12:48:00;;;;;;;9.52;1.38;;;;;;;;;;5052765;28;20079;-66
2022/12/24 12:50:26;;;;;;;9.10;1.38;;;;;;;;;;5052781;28;20053;-69
2022/12/24 12:53:16;;;;;;;12.45;2.00;;;;;;;;;;5035068;28;20128;-64
2022/12/24 12:56:01;;;;;;;5.20;1.40;;;;;;;;;;5052212;28;20037;-69
2022/12/24 12:58:29;;;;;;;11.48;2.15;;;;;;;;;;5052988;28;20123;-65
2022/12/24 13:00:59;;;;;;;13.95;2.33;;;;;;;;;;5052721;28;20051;-65
2022/12/24 13:03:40;;;;;;;10.07;1.60;;;;;;;;;;5052846;28;20048;-66
2022/12/24 13:06:13;;;;;;;4.28;1.25;;;;;;;;;;5052481;28;20052;-69
2022/12/24 13:08:39;;;;;;;5.47;1.30;;;;;;;;;;5034629;28;20041;-65
2022/12/24 13:11:24;;;;;;;9.00;1.70;;;;;;;;;;5052745;28;20396;-65
2022/12/24 13:13:56;;;;;;;4.57;1.58;;;;;;;;;;5052598;28;20536;-66
2022/12/24 13:16:34;;;;;;;7.30;1.42;;;;;;;;;;5052704;28;20033;-68
2022/12/24 13:19:29;;;;;;;7.47;1.48;;;;;;;;;;5034795;28;20098;-64
2022/12/24 13:21:56;;;;;;;13.25;2.15;;;;;;;;;;4965572;28;20082;-64
2022/12/24 13:24:26;;;;;;;6.15;1.65;;;;;;;;;;5052660;28;20036;-64
2022/12/24 13:27:07;;;;;;;5.60;1.90;;;;;;;;;;5034682;28;20120;-64
2022/12/24 13:29:33;;;;;;;6.93;1.10;;;;;;;;;;5034725;28;20049;-64